MSC Bettina — HPFG — position and weather

sailwx.info

Track history (hours):
 
Tides and Currents Weather Stations Pressure Air Temp Water Temp Dewpoint Dewpoint Depression Visibility Wind Speed Wind Dir Waves Ship Positions

MSC Bettina

Last reported at 2017-Feb-09 13:31 UTC. Time now 2017-Feb-20 18:39 UTC.
Position N 24°13' E 118°27'.
Warning: this ship's position is 11 days out of date.

Length 366 m; draft 11.2 m.

Type: Ship (hazmat cat A). MMSI: 352361000.

Date/timePositionNaut miles runAvg speedWind from/ knotsBaromVisibWave heightAir tempDewpointWater temp
2017-Feb-09 13:31N 24°13' E 118°27'1212.5
2017-Feb-09 12:34N 24°15' E 118°15'1313.2
2017-Feb-09 11:33N 24°25' E 118°05'3 2.8
2017-Feb-09 10:33N 24°26' E 118°02'0 0.0
2017-Feb-09 09:33N 24°26' E 118°02'0 0.0
2017-Feb-09 08:33N 24°26' E 118°02'0 0.0
2017-Feb-09 07:33N 24°26' E 118°02'0 0.0
2017-Feb-09 06:34N 24°26' E 118°02'0 0.0
2017-Feb-09 05:33N 24°26' E 118°02'0 0.0
2017-Feb-09 04:33N 24°26' E 118°02'0 0.0
2017-Feb-09 03:33N 24°26' E 118°02'0 0.0
2017-Feb-09 02:33N 24°26' E 118°02'0 0.0
2017-Feb-09 01:33N 24°26' E 118°02'0 0.0
2017-Feb-09 00:33N 24°26' E 118°02'0 0.0
2017-Feb-08 23:33N 24°26' E 118°02'0 0.0
2017-Feb-08 22:33N 24°26' E 118°02'0 0.4
2017-Feb-08 21:33N 24°26' E 118°02'1010.2
2017-Feb-08 20:33N 24°20' E 118°11'  
2017-Feb-01 21:26N 01°15' E 104°09'1315.0
2017-Feb-01 20:33N 01°13' E 103°56'10 9.9
2017-Feb-01 19:33N 01°15' E 103°46'1 1.3
2017-Feb-01 18:33N 01°16' E 103°46'0 0.0
2017-Feb-01 17:33N 01°16' E 103°46'0 0.0
2017-Feb-01 16:33N 01°16' E 103°46'0 0.0
2017-Feb-01 15:34N 01°16' E 103°46'0 0.0
2017-Feb-01 14:33N 01°16' E 103°46'0 0.0
2017-Feb-01 12:33N 01°16' E 103°46'0 0.0
2017-Feb-01 11:33N 01°16' E 103°46'0 0.0
2017-Feb-01 10:32N 01°16' E 103°46'0 0.0
2017-Feb-01 09:33N 01°16' E 103°46'0 0.0
2017-Feb-01 08:33N 01°16' E 103°46'0 0.0
2017-Feb-01 07:32N 01°16' E 103°46'0 0.0
2017-Feb-01 06:33N 01°16' E 103°46'0 0.0
2017-Feb-01 05:33N 01°16' E 103°46'0 0.0
2017-Feb-01 04:33N 01°16' E 103°46'0 0.0
2017-Feb-01 03:33N 01°16' E 103°46'0 0.0
2017-Feb-01 02:33N 01°16' E 103°46'0 0.3
2017-Feb-01 01:33N 01°16' E 103°46'8 7.5
2017-Feb-01 00:29N 01°12' E 103°39'5312.3
2017-Jan-31 20:09N 01°37' E 102°51'1015.1
2017-Jan-31 19:30N 01°41' E 102°43'1415.0
2017-Jan-31 18:33N 01°47' E 102°30'1615.6
2017-Jan-31 17:32N 01°54' E 102°15'  
Track history (hours):
 
Tides and Currents Weather Stations Pressure Air Temp Water Temp Dewpoint Dewpoint Depression Visibility Wind Speed Wind Dir Waves Ship Positions

MSC Bettina

Last reported at 2017-Feb-09 13:31 UTC. Time now 2017-Feb-20 18:39 UTC.
Position N 24°13' E 118°27'.
Warning: this ship's position is 11 days out of date.

Length 366 m; draft 11.2 m.

Type: Ship (hazmat cat A). MMSI: 352361000.

Date/timePositionNaut miles runAvg speedWind from/ knotsBaromVisibWave heightAir tempDewpointWater temp
2017-Feb-09 13:31N 24°13' E 118°27'1212.5
2017-Feb-09 12:34N 24°15' E 118°15'1313.2
2017-Feb-09 11:33N 24°25' E 118°05'3 2.8
2017-Feb-09 10:33N 24°26' E 118°02'0 0.0
2017-Feb-09 09:33N 24°26' E 118°02'0 0.0
2017-Feb-09 08:33N 24°26' E 118°02'0 0.0
2017-Feb-09 07:33N 24°26' E 118°02'0 0.0
2017-Feb-09 06:34N 24°26' E 118°02'0 0.0
2017-Feb-09 05:33N 24°26' E 118°02'0 0.0
2017-Feb-09 04:33N 24°26' E 118°02'0 0.0
2017-Feb-09 03:33N 24°26' E 118°02'0 0.0
2017-Feb-09 02:33N 24°26' E 118°02'0 0.0
2017-Feb-09 01:33N 24°26' E 118°02'0 0.0
2017-Feb-09 00:33N 24°26' E 118°02'0 0.0
2017-Feb-08 23:33N 24°26' E 118°02'0 0.0
2017-Feb-08 22:33N 24°26' E 118°02'0 0.4
2017-Feb-08 21:33N 24°26' E 118°02'1010.2
2017-Feb-08 20:33N 24°20' E 118°11'  
2017-Feb-01 21:26N 01°15' E 104°09'1315.0
2017-Feb-01 20:33N 01°13' E 103°56'10 9.9
2017-Feb-01 19:33N 01°15' E 103°46'1 1.3
2017-Feb-01 18:33N 01°16' E 103°46'0 0.0
2017-Feb-01 17:33N 01°16' E 103°46'0 0.0
2017-Feb-01 16:33N 01°16' E 103°46'0 0.0
2017-Feb-01 15:34N 01°16' E 103°46'0 0.0
2017-Feb-01 14:33N 01°16' E 103°46'0 0.0
2017-Feb-01 12:33N 01°16' E 103°46'0 0.0
2017-Feb-01 11:33N 01°16' E 103°46'0 0.0
2017-Feb-01 10:32N 01°16' E 103°46'0 0.0
2017-Feb-01 09:33N 01°16' E 103°46'0 0.0
2017-Feb-01 08:33N 01°16' E 103°46'0 0.0
2017-Feb-01 07:32N 01°16' E 103°46'0 0.0
2017-Feb-01 06:33N 01°16' E 103°46'0 0.0
2017-Feb-01 05:33N 01°16' E 103°46'0 0.0
2017-Feb-01 04:33N 01°16' E 103°46'0 0.0
2017-Feb-01 03:33N 01°16' E 103°46'0 0.0
2017-Feb-01 02:33N 01°16' E 103°46'0 0.3
2017-Feb-01 01:33N 01°16' E 103°46'8 7.5
2017-Feb-01 00:29N 01°12' E 103°39'5312.3
2017-Jan-31 20:09N 01°37' E 102°51'1015.1
2017-Jan-31 19:30N 01°41' E 102°43'1415.0
2017-Jan-31 18:33N 01°47' E 102°30'1615.6
2017-Jan-31 17:32N 01°54' E 102°15'  

Dump ship's entire track history